Pleasantville, NJ

12:51 AM EST on December 06, 2016 (GMT -0500)
Atlantic City International | | Change Station

Elev 66 ft 39.45 °N, 74.57 °W | Updated 57 minutes ago

Clear
Clear
38 °F
Feels Like 36 °F
N
4
Wind Variable Wind from NNW

Today
High -- | Low -- °F
--% Chance of Precip.
Yesterday
High -- | Low -- °F
Precip. -- in
Pressure 30.11 in
Visibility 10.0 miles
Clouds Clear
Windchill 36 °F
Dew Point 33 °F
Humidity 83%
Rainfall 0.20 in
Snow Depth Not available.
7:04 AM 4:34 PM
Waxing Crescent, 38% visible
METAR KACY 060454Z 33003KT 10SM CLR 03/01 A3010 RMK AO2 SLP195 T00330006 401060017
Pressure 30.11 in
Visibility 10.0 miles
Clouds Clear
Windchill 36 °F
Dew Point 33 °F
Humidity 83%
Rainfall 0.20 in
Snow Depth Not available.
7:04 AM 4:34 PM
Waxing Crescent, 38% visible
METAR KACY 060454Z 33003KT 10SM CLR 03/01 A3010 RMK AO2 SLP195 T00330006 401060017

10-Day Weather Forecast

Almanac

Astronomy

Dec. 06, 2016 Rise Set
Actual Time
Civil Twilight
Nautical Twilight
Astronomical Twilight
Moon
Length of Visible Light
Length of Day
Tomorrow will be .
, % of the Moon is Illuminated

Today's Extremes

State Highs State Lows

Community

WunderPhotos

Upload Photos

1,955,931 photos uploaded!

WunderBlog® & News

Nearby

Air Quality

  Air Quality AQ Index Pollutant
Not available.

Snow Depth

Station Depth Elevation

Earthquake Activity

City Distance Mag. Time & Date
Minimum magnitude displayed is 2.5.

Coastal Water Temperatures

Place Temperature

Stations

Nearby Weather Stations

Station Location Temp. Windchill Dew Point Humidity Wind Precip. Elev Updated Type
                   

Watches & Warnings

There are currently no watches in effect.